Time;durP1;ratioP1;P1;durP2;ratioP2;P2;SDS_P1;SDS_P2;PMS_P1;PMS_P2;Temp;Humidity;BMP_temperature;BMP_pressure;BME280_temperature;BME280_humidity;BME280_pressure;Samples;Min_cycle;Max_cycle;Signal;HPM_P1;HPM_P2
2022/04/27 00:00:44;;;;;;;20.50;4.00;;;12.90;99.90;;;;;;5076616;28;20548;-72
2022/04/27 00:03:14;;;;;;;11.87;3.20;;;12.90;99.90;;;;;;5046209;28;20212;-72
2022/04/27 00:05:45;;;;;;;11.43;2.90;;;12.90;99.90;;;;;;5077945;28;20252;-72
2022/04/27 00:08:13;;;;;;;10.90;3.00;;;12.90;99.90;;;;;;5079326;28;20198;-72
2022/04/27 00:10:41;;;;;;;14.73;3.57;;;12.80;99.90;;;;;;5070919;28;20221;-72
2022/04/27 00:13:17;;;;;;;21.50;3.40;;;12.80;99.90;;;;;;5066704;28;20223;-72
2022/04/27 00:15:46;;;;;;;12.97;3.47;;;12.80;99.90;;;;;;5067305;28;20190;-71
2022/04/27 00:18:12;;;;;;;9.17;3.53;;;12.80;99.90;;;;;;5060185;28;20235;-71
2022/04/27 00:20:42;;;;;;;19.90;3.77;;;12.80;99.90;;;;;;5055151;28;20542;-72
2022/04/27 00:23:09;;;;;;;13.10;2.93;;;12.80;99.90;;;;;;5048914;28;20190;-71
2022/04/27 00:25:36;;;;;;;17.17;3.47;;;12.80;99.90;;;;;;5070481;28;20193;-71
2022/04/27 00:28:04;;;;;;;18.47;3.77;;;12.80;99.90;;;;;;5052219;28;20190;-72
2022/04/27 00:30:31;;;;;;;15.43;4.10;;;12.80;99.90;;;;;;5073266;28;20273;-73
2022/04/27 00:32:58;;;;;;;17.17;3.57;;;12.80;99.90;;;;;;5044053;28;20226;-72
2022/04/27 00:35:24;;;;;;;19.27;4.13;;;12.80;99.90;;;;;;5064499;28;20194;-72
2022/04/27 00:37:50;;;;;;;19.00;4.00;;;12.80;99.90;;;;;;5051399;28;20190;-72
2022/04/27 00:40:17;;;;;;;17.57;4.23;;;12.70;99.90;;;;;;5078850;28;20190;-72
2022/04/27 00:42:46;;;;;;;11.70;3.20;;;12.70;99.90;;;;;;5071764;28;20184;-72
2022/04/27 00:45:15;;;;;;;11.73;3.40;;;12.60;99.90;;;;;;5083230;28;20836;-72
2022/04/27 00:47:42;;;;;;;14.13;3.43;;;12.60;99.90;;;;;;5068631;28;20183;-71
2022/04/27 00:50:13;;;;;;;13.20;3.20;;;12.60;99.90;;;;;;5066535;28;20264;-72
2022/04/27 00:52:42;;;;;;;16.47;3.53;;;12.10;99.90;;;;;;5052569;28;20186;-73
2022/04/27 00:55:16;;;;;;;18.03;3.43;;;12.60;99.90;;;;;;5078916;28;20771;-71
2022/04/27 00:57:46;;;;;;;13.33;3.23;;;12.20;99.90;;;;;;5048806;28;20674;-72
2022/04/27 01:00:19;;;;;;;14.43;3.00;;;12.80;99.90;;;;;;5074094;28;20183;-71
2022/04/27 01:02:46;;;;;;;16.70;3.73;;;12.50;99.90;;;;;;5056945;28;20195;-72
2022/04/27 01:05:12;;;;;;;16.20;3.30;;;12.50;99.90;;;;;;5083314;28;20192;-73
2022/04/27 01:07:41;;;;;;;14.60;3.20;;;12.50;99.90;;;;;;5061720;28;20186;-72
2022/04/27 01:10:10;;;;;;;15.33;3.80;;;12.40;99.90;;;;;;5073949;28;20178;-71
2022/04/27 01:12:37;;;;;;;21.67;3.77;;;12.40;99.90;;;;;;5057209;28;20186;-73
2022/04/27 01:15:04;;;;;;;13.83;3.27;;;12.40;99.90;;;;;;5049580;28;20186;-71
2022/04/27 01:17:34;;;;;;;13.77;3.20;;;;;;;;;;5057116;28;20628;-72
2022/04/27 01:20:07;;;;;;;17.87;3.50;;;12.30;99.90;;;;;;5048031;28;20190;-73
2022/04/27 01:22:34;;;;;;;13.37;3.37;;;12.30;99.90;;;;;;5073174;28;20190;-72
2022/04/27 01:25:00;;;;;;;14.60;3.10;;;12.30;99.90;;;;;;5074402;28;20225;-72
2022/04/27 01:27:26;;;;;;;13.63;3.23;;;13.10;99.90;;;;;;5049452;28;20186;-71
2022/04/27 01:29:53;;;;;;;20.17;3.63;;;12.30;99.90;;;;;;5067824;28;20186;-71
2022/04/27 01:32:19;;;;;;;13.07;3.00;;;12.30;99.90;;;;;;5087141;28;20293;-71
2022/04/27 01:34:49;;;;;;;17.43;3.23;;;12.30;99.90;;;;;;5052280;28;20251;-72
2022/04/27 01:40:00;;;;;;;13.23;3.30;;;12.30;99.90;;;;;;5060994;28;20218;-71
2022/04/27 01:42:27;;;;;;;11.70;3.23;;;12.30;99.90;;;;;;5072610;28;20225;-72
2022/04/27 01:44:53;;;;;;;12.73;3.00;;;12.30;99.90;;;;;;5088238;28;20191;-72
2022/04/27 01:47:21;;;;;;;13.37;3.00;;;12.30;99.90;;;;;;5062307;28;20191;-72
2022/04/27 01:49:50;;;;;;;10.03;2.33;;;12.30;99.90;;;;;;5052948;28;20201;-71
2022/04/27 01:55:02;;;;;;;9.37;2.70;;;12.20;99.90;;;;;;5069855;28;20539;-72
2022/04/27 01:57:40;;;;;;;14.73;2.67;;;12.20;99.90;;;;;;5051050;28;20217;-71
2022/04/27 02:00:08;;;;;;;8.50;1.90;;;12.20;99.90;;;;;;5055606;28;20282;-71
2022/04/27 02:02:34;;;;;;;9.90;2.20;;;12.20;99.90;;;;;;5068624;28;20532;-72
2022/04/27 02:05:01;;;;;;;12.83;2.40;;;12.20;99.90;;;;;;5053027;28;21045;-71
2022/04/27 02:07:27;;;;;;;12.17;2.00;;;12.20;99.90;;;;;;5052550;28;20191;-72
2022/04/27 02:09:54;;;;;;;9.73;2.27;;;12.10;99.90;;;;;;5069863;28;20205;-71
2022/04/27 02:12:23;;;;;;;18.37;2.37;;;;;;;;;;5057508;28;20182;-72
2022/04/27 02:14:50;;;;;;;7.90;2.47;;;12.10;99.90;;;;;;5044210;28;20264;-73
2022/04/27 02:17:19;;;;;;;13.60;2.37;;;12.10;99.90;;;;;;5073514;28;20194;-71
2022/04/27 02:19:48;;;;;;;14.40;2.47;;;12.10;99.90;;;;;;5080359;28;20214;-72
2022/04/27 02:22:14;;;;;;;11.87;2.00;;;12.10;99.90;;;;;;5073626;28;20204;-72
2022/04/27 02:24:42;;;;;;;13.73;2.47;;;12.10;99.90;;;;;;5075408;28;20195;-71
2022/04/27 02:27:09;;;;;;;10.83;2.20;;;12.10;99.90;;;;;;5071954;28;20265;-72
2022/04/27 02:29:36;;;;;;;13.80;2.43;;;12.10;99.90;;;;;;5066437;28;20233;-72
2022/04/27 02:32:03;;;;;;;5.43;2.20;;;12.10;99.90;;;;;;5070730;28;20215;-71
2022/04/27 02:34:32;;;;;;;9.40;2.17;;;12.10;99.90;;;;;;5055519;28;20206;-71
2022/04/27 02:36:58;;;;;;;15.53;2.63;;;12.10;99.90;;;;;;5079232;28;20195;-71
2022/04/27 02:39:24;;;;;;;14.30;2.27;;;12.10;99.90;;;;;;5088335;28;20190;-72
2022/04/27 02:41:51;;;;;;;15.07;2.53;;;12.10;99.90;;;;;;5064592;28;20209;-71
2022/04/27 02:44:17;;;;;;;11.27;2.43;;;12.10;99.90;;;;;;5067014;28;20197;-72
2022/04/27 02:46:44;;;;;;;10.33;2.20;;;12.10;99.90;;;;;;5058162;28;20206;-72
2022/04/27 02:52:06;;;;;;;15.53;2.40;;;12.00;99.90;;;;;;5079956;28;20191;-71
2022/04/27 02:54:33;;;;;;;11.13;2.33;;;12.00;99.90;;;;;;5066934;28;20222;-72
2022/04/27 02:56:59;;;;;;;11.83;2.40;;;12.00;99.90;;;;;;5051684;28;20532;-72
2022/04/27 02:59:30;;;;;;;10.20;2.43;;;12.00;99.90;;;;;;5073764;28;20189;-71
2022/04/27 03:01:57;;;;;;;9.00;2.40;;;12.00;99.90;;;;;;5043009;28;20237;-72
2022/04/27 03:04:27;;;;;;;10.40;2.33;;;12.00;99.90;;;;;;5054578;28;20186;-71
2022/04/27 03:06:53;;;;;;;13.67;2.50;;;12.00;99.90;;;;;;5087109;28;20188;-71
2022/04/27 03:09:20;;;;;;;14.47;2.30;;;12.00;99.90;;;;;;5064662;28;20277;-71
2022/04/27 03:11:46;;;;;;;13.47;2.83;;;12.00;99.90;;;;;;5051557;28;20197;-71
2022/04/27 03:14:13;;;;;;;10.23;2.23;;;12.00;99.90;;;;;;5060841;28;20297;-72
2022/04/27 03:16:49;;;;;;;13.83;2.43;;;12.00;99.90;;;;;;5059159;28;20190;-71
2022/04/27 03:19:16;;;;;;;14.87;3.23;;;12.00;99.90;;;;;;5079588;28;20711;-71
2022/04/27 03:21:45;;;;;;;16.20;2.37;;;12.00;99.90;;;;;;5052089;28;20186;-71
2022/04/27 03:24:12;;;;;;;10.23;1.80;;;12.00;99.90;;;;;;5059494;28;20646;-72
2022/04/27 03:26:39;;;;;;;8.30;2.70;;;12.10;99.90;;;;;;5086694;28;20202;-71
2022/04/27 03:29:08;;;;;;;11.40;2.23;;;12.10;99.90;;;;;;5072078;28;20274;-71
2022/04/27 03:31:34;;;;;;;17.47;2.67;;;12.10;99.90;;;;;;5067920;28;20211;-72
2022/04/27 03:34:01;;;;;;;18.90;2.33;;;12.10;99.90;;;;;;5070515;28;20225;-71
2022/04/27 03:36:28;;;;;;;14.20;2.77;;;12.10;99.90;;;;;;5053777;28;20677;-72
2022/04/27 03:38:56;;;;;;;23.40;3.07;;;12.10;99.90;;;;;;5055898;28;20189;-72
2022/04/27 03:41:28;;;;;;;24.80;3.20;;;12.10;99.90;;;;;;5046660;28;20183;-71
2022/04/27 03:43:56;;;;;;;17.90;3.83;;;12.10;99.90;;;;;;5069740;28;20277;-71
2022/04/27 03:46:22;;;;;;;13.13;2.47;;;12.10;99.90;;;;;;5070440;28;20260;-72
2022/04/27 03:48:52;;;;;;;15.20;2.57;;;12.10;99.90;;;;;;5072688;28;20251;-71
2022/04/27 03:51:18;;;;;;;9.43;2.40;;;12.10;99.90;;;;;;5069257;28;20197;-72
2022/04/27 03:53:54;;;;;;;16.57;2.73;;;12.10;99.90;;;;;;5086344;28;20267;-72
2022/04/27 03:56:20;;;;;;;18.37;2.40;;;12.10;99.90;;;;;;5069208;28;20263;-72
2022/04/27 03:58:46;;;;;;;14.03;2.63;;;12.10;99.90;;;;;;5057865;28;20182;-72
2022/04/27 04:01:18;;;;;;;17.17;2.80;;;12.10;99.90;;;;;;5068404;28;20190;-71
2022/04/27 04:03:44;;;;;;;13.80;2.30;;;;;;;;;;5072232;28;20243;-71
2022/04/27 04:06:10;;;;;;;11.43;2.10;;;12.10;99.90;;;;;;5068877;28;20667;-72
2022/04/27 04:08:37;;;;;;;14.80;2.23;;;;;;;;;;5089606;28;20203;-72
2022/04/27 04:11:07;;;;;;;14.37;2.77;;;12.20;99.90;;;;;;5080922;28;20647;-71
2022/04/27 04:13:34;;;;;;;12.27;2.30;;;12.20;99.90;;;;;;5056061;28;20202;-72
2022/04/27 04:16:00;;;;;;;10.40;2.63;;;12.20;99.90;;;;;;5058473;28;20718;-71
2022/04/27 04:18:27;;;;;;;12.00;2.47;;;12.20;99.90;;;;;;5054602;28;20190;-72
2022/04/27 04:20:54;;;;;;;10.30;2.57;;;12.30;99.90;;;;;;5056705;28;20618;-73
2022/04/27 04:23:20;;;;;;;15.20;2.90;;;12.30;99.90;;;;;;5066122;28;20194;-73
2022/04/27 04:28:32;;;;;;;12.27;2.87;;;12.30;99.90;;;;;;5075664;28;20198;-72
2022/04/27 04:31:01;;;;;;;9.17;2.43;;;12.40;99.90;;;;;;5069077;28;20202;-71
2022/04/27 04:33:28;;;;;;;11.87;3.13;;;12.40;99.90;;;;;;5059100;28;20656;-72
2022/04/27 04:35:57;;;;;;;9.73;2.30;;;12.40;99.90;;;;;;5066278;28;20213;-73
2022/04/27 04:38:28;;;;;;;9.87;2.37;;;12.50;99.90;;;;;;5058309;28;20573;-71
2022/04/27 04:40:54;;;;;;;15.50;2.97;;;12.50;99.90;;;;;;5072904;28;20194;-71
2022/04/27 04:43:20;;;;;;;11.00;2.50;;;12.50;99.90;;;;;;5088475;28;20195;-72
2022/04/27 04:45:47;;;;;;;10.43;2.30;;;12.60;99.90;;;;;;5082072;28;20244;-72
2022/04/27 04:48:14;;;;;;;8.27;2.17;;;12.60;99.90;;;;;;5048166;28;20187;-72
2022/04/27 04:50:41;;;;;;;11.53;2.60;;;12.60;99.90;;;;;;5065036;28;20191;-72
2022/04/27 04:53:07;;;;;;;10.83;2.67;;;12.70;99.90;;;;;;5062664;28;21311;-72
2022/04/27 04:55:36;;;;;;;17.00;2.80;;;12.70;99.90;;;;;;5049350;28;20206;-71
2022/04/27 04:58:06;;;;;;;11.30;2.80;;;12.80;99.90;;;;;;5047013;28;20202;-71
2022/04/27 05:00:32;;;;;;;11.63;2.70;;;12.90;99.90;;;;;;5048395;28;20191;-72
2022/04/27 05:03:01;;;;;;;8.60;2.17;;;12.90;99.90;;;;;;5067198;28;20205;-72
2022/04/27 05:05:27;;;;;;;9.57;2.43;;;13.00;99.90;;;;;;5073839;28;20737;-72
2022/04/27 05:07:54;;;;;;;10.40;2.23;;;13.00;99.90;;;;;;5056100;28;20217;-72
2022/04/27 05:10:22;;;;;;;15.33;2.43;;;13.10;99.90;;;;;;5056039;28;20194;-72
2022/04/27 05:12:48;;;;;;;12.20;2.70;;;13.10;99.90;;;;;;5068349;28;20238;-72
2022/04/27 05:15:16;;;;;;;12.20;2.50;;;13.20;99.90;;;;;;5065420;28;20235;-72
2022/04/27 05:17:43;;;;;;;15.10;2.67;;;13.20;99.90;;;;;;5053319;28;20281;-72
2022/04/27 05:20:13;;;;;;;12.10;2.07;;;13.30;99.90;;;;;;5054558;28;20623;-72
2022/04/27 05:22:39;;;;;;;12.33;2.40;;;13.40;99.90;;;;;;5062775;28;20278;-72
2022/04/27 05:25:09;;;;;;;12.80;2.57;;;13.40;99.90;;;;;;5071029;28;20185;-72
2022/04/27 05:27:38;;;;;;;10.40;2.77;;;13.50;99.90;;;;;;5084929;28;20196;-72
2022/04/27 05:32:52;;;;;;;10.33;2.10;;;13.60;99.90;;;;;;5087160;28;20202;-72
2022/04/27 05:35:18;;;;;;;13.37;2.30;;;13.70;99.90;;;;;;5065053;28;20331;-71
2022/04/27 05:37:45;;;;;;;9.20;2.10;;;13.70;99.90;;;;;;5065999;28;20190;-72
2022/04/27 05:40:13;;;;;;;11.37;2.60;;;13.80;99.90;;;;;;5064854;28;20542;-73
2022/04/27 05:42:41;;;;;;;12.00;2.77;;;14.00;99.90;;;;;;5065814;28;20289;-72
2022/04/27 05:45:10;;;;;;;15.47;2.67;;;14.00;99.90;;;;;;5068986;28;20182;-72
2022/04/27 05:47:39;;;;;;;10.53;2.30;;;14.10;99.90;;;;;;5079017;28;20198;-72
2022/04/27 05:50:07;;;;;;;10.47;2.13;;;14.30;99.90;;;;;;5063190;28;20253;-72
2022/04/27 05:52:58;;;;;;;10.07;2.03;;;14.40;99.90;;;;;;5066206;28;20639;-72
2022/04/27 05:55:25;;;;;;;12.33;2.30;;;14.40;99.90;;;;;;5072215;28;20212;-72
2022/04/27 05:57:53;;;;;;;8.97;1.67;;;14.50;99.90;;;;;;5073649;28;20185;-73
2022/04/27 06:00:23;;;;;;;9.33;2.27;;;14.60;99.90;;;;;;5067618;28;20274;-72
2022/04/27 06:02:52;;;;;;;13.30;2.10;;;14.70;99.90;;;;;;5075249;28;20205;-72
2022/04/27 06:05:30;;;;;;;7.70;2.23;;;14.90;99.90;;;;;;5052410;28;20201;-73
2022/04/27 06:07:58;;;;;;;11.43;2.03;;;15.00;99.90;;;;;;5088190;28;20198;-73
2022/04/27 06:10:25;;;;;;;9.43;1.93;;;15.00;99.90;;;;;;5048507;28;20182;-72
2022/04/27 06:12:56;;;;;;;10.23;2.30;;;15.10;99.90;;;;;;5062565;28;20182;-71
2022/04/27 06:15:22;;;;;;;7.73;2.20;;;15.20;99.90;;;;;;5069614;28;20205;-72
2022/04/27 06:17:49;;;;;;;7.87;1.70;;;15.20;99.90;;;;;;5065888;28;20858;-72
2022/04/27 06:20:17;;;;;;;5.43;1.80;;;15.20;99.90;;;;;;5066494;28;20190;-72
2022/04/27 06:22:45;;;;;;;5.97;1.67;;;15.20;99.90;;;;;;5046781;28;20193;-72
2022/04/27 06:25:11;;;;;;;8.43;1.63;;;15.30;99.90;;;;;;5084078;28;20193;-72
2022/04/27 06:27:38;;;;;;;7.67;1.93;;;15.30;99.90;;;;;;5080014;28;20543;-72
2022/04/27 06:30:05;;;;;;;7.33;2.17;;;15.30;99.90;;;;;;5063769;28;21671;-73
2022/04/27 06:32:33;;;;;;;11.20;2.00;;;15.30;99.90;;;;;;5048498;28;20221;-73
2022/04/27 06:35:00;;;;;;;8.90;1.77;;;15.40;99.90;;;;;;5057032;28;20658;-73
2022/04/27 06:37:28;;;;;;;8.83;2.50;;;15.40;99.90;;;;;;5064950;28;20187;-72
2022/04/27 06:39:54;;;;;;;15.47;2.53;;;15.40;99.90;;;;;;5084784;28;20193;-72
2022/04/27 06:42:25;;;;;;;12.43;2.80;;;15.50;99.90;;;;;;5073169;28;20228;-72
2022/04/27 06:44:56;;;;;;;10.63;2.83;;;15.50;99.90;;;;;;5068164;28;20207;-72
2022/04/27 06:47:25;;;;;;;9.93;2.87;;;15.50;99.90;;;;;;5069719;28;20204;-73
2022/04/27 06:49:51;;;;;;;12.07;3.23;;;15.60;99.90;;;;;;5070815;28;20243;-72
2022/04/27 06:52:21;;;;;;;17.90;4.33;;;15.70;99.90;;;;;;5068471;28;20194;-73
2022/04/27 06:54:53;;;;;;;15.77;4.10;;;15.70;99.90;;;;;;5085805;28;20202;-72
2022/04/27 06:57:20;;;;;;;12.47;3.33;;;15.80;99.90;;;;;;5066060;28;20224;-72
2022/04/27 06:59:46;;;;;;;12.93;3.13;;;15.90;99.90;;;;;;5063466;28;20198;-72
2022/04/27 07:02:15;;;;;;;14.87;4.27;;;16.10;99.90;;;;;;5061740;28;20197;-73
2022/04/27 07:04:55;;;;;;;22.07;3.43;;;16.20;99.90;;;;;;5069723;28;20186;-72
2022/04/27 07:07:30;;;;;;;11.90;3.10;;;16.30;99.90;;;;;;5065146;28;20247;-73
2022/04/27 07:09:57;;;;;;;15.80;3.40;;;16.30;99.90;;;;;;5067265;28;20194;-73
2022/04/27 07:12:26;;;;;;;15.63;4.67;;;16.40;99.90;;;;;;5048146;28;20646;-72
2022/04/27 07:14:59;;;;;;;13.20;2.90;;;16.40;99.90;;;;;;5049465;28;20826;-72
2022/04/27 07:17:32;;;;;;;11.07;2.87;;;16.40;99.90;;;;;;5052530;28;20186;-73
2022/04/27 07:19:59;;;;;;;16.10;3.10;;;16.50;99.90;;;;;;5054489;28;20190;-72
2022/04/27 07:22:35;;;;;;;13.67;2.70;;;16.60;99.90;;;;;;5053331;28;20269;-72
2022/04/27 07:25:07;;;;;;;13.93;2.40;;;16.70;99.90;;;;;;5054423;28;20209;-72
2022/04/27 07:27:39;;;;;;;11.13;2.90;;;16.70;99.90;;;;;;5058961;28;20198;-73
2022/04/27 07:30:14;;;;;;;10.27;2.73;;;16.80;99.90;;;;;;5051410;28;20190;-73
2022/04/27 07:32:46;;;;;;;14.43;3.00;;;16.80;99.90;;;;;;5083731;28;20221;-73
2022/04/27 07:35:18;;;;;;;13.70;3.07;;;16.90;99.90;;;;;;5050716;28;20186;-72
2022/04/27 07:37:49;;;;;;;20.07;2.60;;;17.00;99.90;;;;;;5068305;28;20224;-73
2022/04/27 07:40:16;;;;;;;11.90;2.40;;;17.10;99.90;;;;;;5057982;28;20182;-73
2022/04/27 07:42:48;;;;;;;15.67;2.73;;;17.20;99.90;;;;;;5051034;28;20272;-73
2022/04/27 07:45:19;;;;;;;13.27;2.80;;;17.30;99.90;;;;;;5041184;28;20191;-74
2022/04/27 07:47:48;;;;;;;16.07;3.00;;;17.40;99.90;;;;;;5067238;28;20187;-73
2022/04/27 07:50:19;;;;;;;19.60;3.23;;;17.50;99.90;;;;;;5088866;28;20186;-73
2022/04/27 07:52:51;;;;;;;12.63;2.83;;;17.50;99.90;;;;;;5087005;28;20186;-73
2022/04/27 07:55:20;;;;;;;15.63;2.83;;;17.70;99.90;;;;;;5052211;28;20278;-73
2022/04/27 07:57:56;;;;;;;15.07;3.03;;;17.70;99.90;;;;;;5071864;28;20193;-73
2022/04/27 08:00:23;;;;;;;12.63;2.83;;;17.80;99.90;;;;;;5071891;28;20381;-73
2022/04/27 08:02:52;;;;;;;11.23;2.80;;;17.80;99.90;;;;;;5060269;28;20182;-73
2022/04/27 08:05:20;;;;;;;13.57;2.83;;;17.90;99.90;;;;;;5078329;28;20228;-73
2022/04/27 08:07:47;;;;;;;13.33;2.63;;;18.00;99.90;;;;;;5052364;28;20194;-73
2022/04/27 08:10:22;;;;;;;11.03;2.90;;;18.10;99.90;;;;;;5077529;28;20201;-73
2022/04/27 08:12:49;;;;;;;20.87;3.83;;;18.10;99.90;;;;;;5069129;28;20281;-73
2022/04/27 08:15:24;;;;;;;15.93;2.83;;;18.20;99.90;;;;;;5070199;28;20187;-72
2022/04/27 08:18:12;;;;;;;19.57;3.17;;;18.30;99.90;;;;;;5059804;28;20840;-73
2022/04/27 08:23:34;;;;;;;11.33;2.80;;;18.50;99.90;;;;;;5079866;28;20320;-72
2022/04/27 08:26:06;;;;;;;17.90;3.50;;;18.70;99.90;;;;;;5058285;28;20239;-73
2022/04/27 08:28:37;;;;;;;11.93;2.83;;;18.70;99.90;;;;;;5067168;28;20198;-73
2022/04/27 08:31:07;;;;;;;15.10;3.20;;;18.80;99.90;;;;;;5064964;28;20233;-72
2022/04/27 08:33:35;;;;;;;16.30;3.47;;;18.90;99.90;;;;;;5053922;28;20209;-73
2022/04/27 08:36:03;;;;;;;15.53;3.80;;;19.00;99.90;;;;;;5055930;28;20182;-73
2022/04/27 08:38:31;;;;;;;21.97;3.80;;;19.10;99.90;;;;;;5085041;28;20190;-73
2022/04/27 08:40:58;;;;;;;21.07;4.33;;;19.20;99.90;;;;;;5060743;28;20216;-73
2022/04/27 08:43:26;;;;;;;21.50;4.20;;;19.20;99.90;;;;;;5066673;28;20191;-73
2022/04/27 08:45:56;;;;;;;17.50;4.07;;;19.30;99.90;;;;;;5050577;28;20198;-72
2022/04/27 08:48:24;;;;;;;21.90;3.60;;;19.40;99.90;;;;;;5067194;28;20195;-73
2022/04/27 08:50:53;;;;;;;18.63;4.03;;;19.50;99.90;;;;;;5085123;28;20280;-72
2022/04/27 08:53:24;;;;;;;19.27;3.90;;;19.60;99.90;;;;;;5058509;28;20577;-72
2022/04/27 08:55:53;;;;;;;17.47;4.13;;;19.70;99.90;;;;;;5076596;28;20218;-73
2022/04/27 08:58:25;;;;;;;18.10;3.97;;;19.80;99.90;;;;;;5084576;28;20187;-73
2022/04/27 09:00:53;;;;;;;26.13;4.50;;;19.90;99.90;;;;;;5071214;28;20594;-73
2022/04/27 09:03:32;;;;;;;15.17;3.80;;;19.90;99.90;;;;;;5067564;28;20185;-73
2022/04/27 09:06:13;;;;;;;30.47;4.53;;;20.00;99.90;;;;;;5050959;28;20200;-72
2022/04/27 09:08:55;;;;;;;17.73;3.73;;;20.10;99.90;;;;;;5088382;28;21781;-73
2022/04/27 09:11:29;;;;;;;23.70;5.90;;;20.10;99.90;;;;;;5050023;28;20218;-72
2022/04/27 09:14:09;;;;;;;17.60;3.77;;;20.20;99.90;;;;;;5064928;28;20210;-72
2022/04/27 09:22:43;;;;;;;19.57;5.53;;;20.50;99.90;;;;;;5080828;28;20182;-73
2022/04/27 09:25:09;;;;;;;15.30;4.43;;;20.70;99.90;;;;;;5055969;28;20240;-73
2022/04/27 09:27:38;;;;;;;27.07;4.47;;;20.70;99.90;;;;;;5066605;28;20548;-73
2022/04/27 09:30:10;;;;;;;23.73;4.13;;;20.80;99.90;;;;;;5082163;28;20198;-74
2022/04/27 09:32:37;;;;;;;19.73;4.07;;;20.90;99.90;;;;;;5073949;28;20234;-72
2022/04/27 09:35:08;;;;;;;20.67;4.63;;;21.00;99.90;;;;;;5067114;28;20285;-73
2022/04/27 09:37:43;;;;;;;23.70;4.43;;;21.10;99.90;;;;;;5069022;28;20194;-72
2022/04/27 09:40:17;;;;;;;18.67;4.47;;;21.20;99.90;;;;;;5064773;28;20660;-72
2022/04/27 09:42:47;;;;;;;40.97;5.10;;;21.30;99.90;;;;;;5068131;28;20186;-72
2022/04/27 09:45:25;;;;;;;41.00;5.50;;;21.30;99.90;;;;;;5068852;28;20593;-73
2022/04/27 09:48:08;;;;;;;23.40;4.17;;;21.40;99.90;;;;;;5064339;28;20194;-73
2022/04/27 09:51:15;;;;;;;16.83;4.27;;;21.50;99.90;;;;;;5050168;28;20675;-72
2022/04/27 09:53:45;;;;;;;20.73;3.97;;;21.60;99.90;;;;;;5026474;28;20674;-72
2022/04/27 09:56:17;;;;;;;27.70;5.00;;;21.70;99.90;;;;;;5063047;28;20311;-72
2022/04/27 09:58:47;;;;;;;20.85;4.72;;;21.70;99.90;;;;;;5064910;28;20967;-72
2022/04/27 10:01:18;;;;;;;17.90;4.57;;;21.80;99.90;;;;;;5049804;28;20844;-72
2022/04/27 10:03:48;;;;;;;19.40;4.20;;;21.90;99.90;;;;;;5048298;28;20654;-72
2022/04/27 10:06:16;;;;;;;18.13;4.10;;;21.90;99.90;;;;;;5052741;28;20244;-72
2022/04/27 10:08:49;;;;;;;22.52;4.22;;;22.00;99.90;;;;;;5050350;28;20190;-72
2022/04/27 10:11:17;;;;;;;16.83;4.07;;;22.10;99.90;;;;;;5050379;28;20189;-72
2022/04/27 10:13:45;;;;;;;14.48;3.85;;;22.10;99.90;;;;;;5066683;28;20259;-72
2022/04/27 10:16:16;;;;;;;17.98;3.75;;;22.20;99.90;;;;;;5062660;28;20187;-72
2022/04/27 10:18:45;;;;;;;23.08;4.88;;;22.30;99.90;;;;;;5052882;28;20186;-72
2022/04/27 10:21:14;;;;;;;18.95;4.10;;;22.40;99.90;;;;;;5063984;28;20598;-72
2022/04/27 10:23:46;;;;;;;26.52;4.32;;;22.40;99.90;;;;;;5049556;28;20655;-72
2022/04/27 10:26:28;;;;;;;16.52;4.82;;;22.40;99.90;;;;;;5050028;28;20232;-72
2022/04/27 10:29:08;;;;;;;16.93;3.83;;;22.50;99.90;;;;;;5049483;28;20197;-72
2022/04/27 10:31:50;;;;;;;23.48;5.13;;;22.50;99.90;;;;;;5052133;28;20262;-72
2022/04/27 10:34:26;;;;;;;19.80;4.15;;;22.50;99.90;;;;;;5081355;28;20201;-72
2022/04/27 10:37:01;;;;;;;24.02;4.40;;;22.50;99.90;;;;;;5069804;28;20193;-72
2022/04/27 10:39:33;;;;;;;17.88;4.22;;;22.60;99.90;;;;;;5066433;28;20181;-72
2022/04/27 10:42:09;;;;;;;21.97;4.23;;;22.70;99.90;;;;;;5082696;28;20194;-72
2022/04/27 10:44:55;;;;;;;22.05;4.53;;;22.70;99.90;;;;;;5044546;28;20208;-72
2022/04/27 10:47:23;;;;;;;23.70;4.43;;;22.70;99.90;;;;;;5074846;28;20204;-72
2022/04/27 10:50:19;;;;;;;17.63;4.13;;;22.70;99.90;;;;;;5043041;28;20191;-72
2022/04/27 10:52:52;;;;;;;23.40;4.57;;;22.70;99.90;;;;;;5055939;28;20206;-73
2022/04/27 10:56:04;;;;;;;18.65;4.85;;;22.70;99.90;;;;;;5050101;28;20276;-72
2022/04/27 10:58:37;;;;;;;18.65;4.45;;;22.80;99.90;;;;;;5042702;28;20241;-72
2022/04/27 11:01:11;;;;;;;16.05;4.45;;;22.80;99.90;;;;;;5065798;28;20187;-72
2022/04/27 11:03:41;;;;;;;18.70;4.10;;;22.80;99.90;;;;;;5078865;28;20201;-72
2022/04/27 11:06:14;;;;;;;20.75;4.65;;;22.80;99.90;;;;;;5083459;28;20178;-73
2022/04/27 11:09:34;;;;;;;20.33;4.60;;;22.80;99.90;;;;;;5066201;28;20217;-72
2022/04/27 11:12:04;;;;;;;19.40;3.70;;;22.90;99.90;;;;;;5058904;28;20682;-73
2022/04/27 11:14:36;;;;;;;22.83;5.05;;;22.90;99.90;;;;;;5049883;28;20658;-73
2022/04/27 11:17:28;;;;;;;19.13;4.97;;;22.90;99.90;;;;;;5054743;28;20188;-73
2022/04/27 11:19:58;;;;;;;18.00;4.90;;;22.90;99.90;;;;;;5049284;28;20190;-72
2022/04/27 11:22:27;;;;;;;20.95;5.38;;;22.90;99.90;;;;;;5059748;28;20269;-73
2022/04/27 11:25:00;;;;;;;19.80;5.00;;;22.90;99.90;;;;;;5080741;28;20235;-73
2022/04/27 11:27:36;;;;;;;21.93;4.53;;;22.90;99.90;;;;;;5048989;28;20186;-73
2022/04/27 11:30:11;;;;;;;20.80;5.23;;;22.90;99.90;;;;;;5047026;28;20341;-72
2022/04/27 11:32:46;;;;;;;19.15;4.38;;;23.00;99.90;;;;;;5062871;28;20209;-74
2022/04/27 11:35:16;;;;;;;19.50;4.50;;;22.90;99.90;;;;;;5057651;28;20274;-70
2022/04/27 11:37:44;;;;;;;28.13;4.63;;;22.90;99.90;;;;;;5065282;28;20190;-73
2022/04/27 11:40:22;;;;;;;25.73;4.33;;;22.90;99.90;;;;;;5074266;28;20200;-72
2022/04/27 11:42:49;;;;;;;19.08;4.47;;;23.00;99.90;;;;;;5061067;28;20186;-72
2022/04/27 11:45:26;;;;;;;20.73;4.25;;;23.00;99.90;;;;;;5065893;28;20186;-71
2022/04/27 11:47:59;;;;;;;20.23;4.50;;;23.00;99.90;;;;;;5084171;28;20185;-72
2022/04/27 11:50:33;;;;;;;15.93;4.10;;;23.00;99.90;;;;;;5063462;28;20186;-72
2022/04/27 11:53:08;;;;;;;22.45;4.32;;;23.00;99.90;;;;;;5065847;28;20198;-71
2022/04/27 11:55:38;;;;;;;21.10;3.97;;;23.00;99.90;;;;;;5078325;28;20181;-72
2022/04/27 11:58:09;;;;;;;27.42;4.85;;;23.00;99.90;;;;;;5064106;28;20190;-72
2022/04/27 12:00:36;;;;;;;23.52;4.55;;;23.00;99.90;;;;;;5064770;28;20647;-72
2022/04/27 12:03:08;;;;;;;19.53;4.23;;;23.20;99.90;;;;;;5043440;28;20179;-72
2022/04/27 12:05:38;;;;;;;22.30;5.15;;;23.20;99.90;;;;;;5065764;28;20315;-72
2022/04/27 12:08:12;;;;;;;19.55;4.18;;;23.10;99.90;;;;;;5042646;28;20194;-73
2022/04/27 12:10:43;;;;;;;51.05;10.32;;;23.20;99.90;;;;;;5069352;28;20278;-72
2022/04/27 12:13:21;;;;;;;24.30;5.22;;;23.20;99.90;;;;;;5066426;28;20232;-72
2022/04/27 12:15:51;;;;;;;42.03;9.02;;;23.30;99.90;;;;;;5051682;28;20186;-72
2022/04/27 12:18:27;;;;;;;28.45;4.90;;;23.20;99.90;;;;;;5064090;28;20256;-72
2022/04/27 12:21:00;;;;;;;29.48;6.93;;;23.20;99.90;;;;;;5058298;28;20182;-72
2022/04/27 12:23:30;;;;;;;19.37;4.07;;;23.20;99.90;;;;;;5053635;28;20183;-72
2022/04/27 12:26:00;;;;;;;22.50;5.13;;;23.30;99.90;;;;;;5051534;28;20213;-72
2022/04/27 12:28:46;;;;;;;32.95;6.07;;;23.30;99.90;;;;;;5062224;28;20668;-72
2022/04/27 12:31:20;;;;;;;45.08;9.05;;;23.30;99.90;;;;;;5064101;28;20186;-72
2022/04/27 12:33:58;;;;;;;26.52;6.05;;;23.30;99.90;;;;;;5054240;28;20693;-72
2022/04/27 12:39:41;;;;;;;16.77;4.15;;;23.20;99.90;;;;;;5081030;28;20231;-72
2022/04/27 12:42:09;;;;;;;17.13;3.83;;;23.20;99.90;;;;;;5071680;28;20178;-71
2022/04/27 12:44:44;;;;;;;22.02;4.70;;;23.20;99.90;;;;;;5053668;28;20702;-72
2022/04/27 12:47:19;;;;;;;23.38;3.92;;;23.20;99.90;;;;;;5068691;28;20229;-71
2022/04/27 12:49:51;;;;;;;21.35;4.65;;;23.20;99.90;;;;;;5068833;28;20201;-72
2022/04/27 12:52:30;;;;;;;20.03;4.53;;;23.20;99.90;;;;;;5067428;28;20326;-72
2022/04/27 12:55:09;;;;;;;20.10;3.50;;;23.20;99.90;;;;;;5051410;28;20207;-72
2022/04/27 12:57:56;;;;;;;14.90;3.37;;;23.20;99.90;;;;;;5049138;28;20186;-72
2022/04/27 13:00:48;;;;;;;10.65;3.72;;;23.20;99.90;;;;;;5069854;28;20300;-72
2022/04/27 13:03:19;;;;;;;20.87;3.90;;;23.10;99.90;;;;;;5061175;28;20271;-72
2022/04/27 13:05:47;;;;;;;24.75;4.32;;;23.10;99.90;;;;;;5050202;28;20190;-72
2022/04/27 13:08:16;;;;;;;17.52;3.42;;;23.20;99.90;;;;;;5062953;28;20193;-72
2022/04/27 13:13:34;;;;;;;22.35;4.53;;;23.10;99.90;;;;;;5072610;28;20202;-72
2022/04/27 13:16:02;;;;;;;16.63;3.73;;;23.10;99.90;;;;;;5052270;28;20655;-72
2022/04/27 13:18:29;;;;;;;14.77;3.50;;;23.10;99.90;;;;;;5052952;28;20185;-72
2022/04/27 13:20:57;;;;;;;21.98;3.58;;;23.10;99.90;;;;;;5057828;28;20320;-71
2022/04/27 13:23:24;;;;;;;17.87;4.03;;;23.10;99.90;;;;;;5061190;28;20189;-72